Flight Track Log - Related Links

Times and Time Zones

All times are in EDT time to prevent confusion due to time zone crossing. See the CPT8773 flight status page for this flight to view local times or setup timezone preferences in your user account.

Time Position Orientation Groundspeed Altitude Reporting Facility
EDT Latitude Longitude Course Direction KTS MPH feet Rate Location/Type
Fri 09:01:08 AM 42.9522 -106.4958 308° West 112 129 7,600  Level Denver Center
Fri 09:02:09 AM 42.9836 -106.5131 338° Northwest 112 129 8,400 787 Climbing Denver Center
Fri 09:03:10 AM 43.0111 -106.5281 338° Northwest 112 129 9,200 787 Climbing Denver Center
Fri 09:04:11 AM 43.0372 -106.5411 340° North 112 129 10,000 787 Climbing Denver Center
Fri 09:05:00 AM 43.0795 -106.2705 36° Northeast  Level FlightAware Approximate
Fri 09:05:12 AM 43.0661 -106.5569 338° Northwest 107 123 10,800  Level Denver Center
Fri 09:06:00 AM 43.1033 -106.3016 308° West  Level FlightAware Approximate
Fri 09:06:12 AM 43.0897 -106.5708 337° Northwest 104 120 11,400  Level Denver Center
Fri 09:07:13 AM 43.1150 -106.5847 338° Northwest 102 117 12,000 295 Climbing Denver Center
Fri 09:08:14 AM 43.1506 -106.6022 340° North 116 133 12,000  Level Denver Center
Fri 09:09:15 AM 43.1836 -106.6194 339° North 127 146 12,000  Level Denver Center
Fri 09:10:19 AM 43.2203 -106.6422 336° Northwest 128 147 12,000  Level Salt Lake Center
Fri 09:11:20 AM 43.2539 -106.6575 342° North 131 151 12,000  Level Salt Lake Center
Fri 09:12:21 AM 43.2875 -106.6753 339° North 131 151 12,000  Level Salt Lake Center
Fri 09:13:22 AM 43.3181 -106.7083 322° Northwest 130 150 12,000  Level Salt Lake Center
Fri 09:14:23 AM 43.3386 -106.7494 305° West 131 151 12,000  Level Salt Lake Center
Fri 09:15:24 AM 43.3603 -106.7900 306° West 134 154 12,000  Level Salt Lake Center
Fri 09:16:22 AM 43.3833 -106.8269 311° West 135 155 12,000  Level Denver Center
Fri 09:17:23 AM 43.4061 -106.8736 304° West 135 155 12,000  Level Denver Center
Fri 09:18:27 AM 43.4308 -106.9242 304° West 136 157 12,000  Level Salt Lake Center
Fri 09:19:28 AM 43.4528 -106.9669 305° West 138 159 12,000  Level Salt Lake Center
Fri 09:20:29 AM 43.4758 -107.0103 306° West 138 159 12,000  Level Salt Lake Center
Fri 09:21:30 AM 43.4986 -107.0522 307° West 139 160 12,000  Level Salt Lake Center
Fri 09:22:31 AM 43.5181 -107.0928 303° West 131 151 12,000  Level Salt Lake Center
Fri 09:23:32 AM 43.5375 -107.1303 306° West 126 145 12,000  Level Salt Lake Center
Fri 09:24:33 AM 43.5569 -107.1672 306° West 122 140 12,000  Level Salt Lake Center
Fri 09:25:34 AM 43.5775 -107.2053 307° West 122 140 12,000  Level Salt Lake Center
Fri 09:26:35 AM 43.5967 -107.2439 304° West 122 140 12,000  Level Salt Lake Center
Fri 09:27:36 AM 43.6181 -107.2839 306° West 125 144 12,000  Level Salt Lake Center
Fri 09:28:37 AM 43.6408 -107.3239 308° West 128 147 12,000  Level Salt Lake Center
Fri 09:29:38 AM 43.6614 -107.3650 305° West 129 148 12,000  Level Salt Lake Center
Fri 09:30:39 AM 43.6858 -107.4111 306° West 128 147 12,000  Level Salt Lake Center
Fri 09:31:41 AM 43.7069 -107.4514 306° West 128 147 12,000  Level Salt Lake Center
Fri 09:32:42 AM 43.7275 -107.4914 305° West 128 147 12,000  Level Salt Lake Center
Fri 09:33:43 AM 43.7481 -107.5325 305° West 128 147 12,000  Level Salt Lake Center
Fri 09:34:44 AM 43.7689 -107.5736 305° West 128 147 12,000  Level Salt Lake Center
Fri 09:35:45 AM 43.7897 -107.6139 306° West 128 147 12,000  Level Salt Lake Center
Fri 09:36:46 AM 43.8103 -107.6547 305° West 129 148 12,000  Level Salt Lake Center
Fri 09:37:48 AM 43.8319 -107.6967 306° West 129 148 12,000  Level Salt Lake Center
Fri 09:38:49 AM 43.8533 -107.7378 306° West 129 148 12,000  Level Salt Lake Center
Fri 09:39:50 AM 43.8750 -107.7803 305° West 129 148 12,000  Level Salt Lake Center
Fri 09:40:51 AM 43.8967 -107.8225 305° West 130 150 12,000  Level Salt Lake Center
Fri 09:41:53 AM 43.9228 -107.8733 306° West 131 151 12,000  Level Salt Lake Center
Fri 09:42:54 AM 43.9447 -107.9164 305° West 131 151 12,000  Level Salt Lake Center
Fri 09:43:55 AM 43.9661 -107.9592 305° West 131 151 12,000  Level Salt Lake Center
Fri 09:44:56 AM 43.9914 -107.9983 312° West 132 152 12,000  Level Salt Lake Center
Fri 09:45:58 AM 44.0186 -108.0369 314° West 135 155 12,000  Level Salt Lake Center
Fri 09:46:59 AM 44.0442 -108.0761 312° West 135 155 12,000  Level Salt Lake Center
Fri 09:48:00 AM 44.0700 -108.1153 313° West 135 155 12,000  Level Salt Lake Center
Fri 09:49:01 AM 44.0958 -108.1542 313° West 135 155 12,000  Level Salt Lake Center
Fri 09:50:03 AM 44.1206 -108.1939 311° West 135 155 12,000  Level Salt Lake Center
Fri 09:51:04 AM 44.1458 -108.2325 312° West 135 155 12,000  Level Salt Lake Center
Fri 09:52:05 AM 44.1772 -108.2794 313° West 135 155 12,000  Level Salt Lake Center
Fri 09:53:07 AM 44.2028 -108.3197 312° West 135 155 12,000  Level Salt Lake Center
Fri 09:54:08 AM 44.2283 -108.3586 313° West 135 155 12,000 -197 Level Salt Lake Center
Fri 09:55:09 AM 44.2539 -108.3972 313° West 135 155 11,600 -585 Descending Salt Lake Center
Fri 09:56:11 AM 44.2842 -108.4419 313° West 142 163 10,800 -780 Descending Salt Lake Center
Fri 09:57:12 AM 44.3158 -108.4897 313° West 154 177 10,000 -393 Descending Salt Lake Center
Fri 09:58:13 AM 44.3447 -108.5353 312° West 158 182 10,000 49 Level Salt Lake Center
Fri 09:59:15 AM 44.3703 -108.5775 310° West 155 178 10,100 97 Climbing Salt Lake Center

Login

Don't have an account? Register now (free) for customized features, flight alerts, and more!